sensor_id;sensor_type;location;lat;lon;timestamp;temperature;humidity
7240;DHT22;3661;53.288;10.458;2022-08-19T00:01:51;19.90;99.90
7240;DHT22;3661;53.288;10.458;2022-08-19T00:04:26;19.90;99.90
7240;DHT22;3661;53.288;10.458;2022-08-19T00:06:59;19.80;99.90
7240;DHT22;3661;53.288;10.458;2022-08-19T00:09:31;19.80;99.90
7240;DHT22;3661;53.288;10.458;2022-08-19T00:12:04;19.80;99.90
7240;DHT22;3661;53.288;10.458;2022-08-19T00:14:39;19.70;99.90
7240;DHT22;3661;53.288;10.458;2022-08-19T00:17:11;19.70;99.90
7240;DHT22;3661;53.288;10.458;2022-08-19T00:19:44;19.70;99.90
7240;DHT22;3661;53.288;10.458;2022-08-19T00:22:16;19.70;99.90
7240;DHT22;3661;53.288;10.458;2022-08-19T00:24:49;19.70;99.90
7240;DHT22;3661;53.288;10.458;2022-08-19T00:27:21;19.70;99.90
7240;DHT22;3661;53.288;10.458;2022-08-19T00:29:54;19.70;99.90
7240;DHT22;3661;53.288;10.458;2022-08-19T00:32:27;19.60;99.90
7240;DHT22;3661;53.288;10.458;2022-08-19T00:34:59;19.60;99.90
7240;DHT22;3661;53.288;10.458;2022-08-19T00:37:32;19.60;99.90
7240;DHT22;3661;53.288;10.458;2022-08-19T00:40:06;19.60;99.90
7240;DHT22;3661;53.288;10.458;2022-08-19T00:42:39;19.60;99.90
7240;DHT22;3661;53.288;10.458;2022-08-19T00:45:17;19.50;99.90
7240;DHT22;3661;53.288;10.458;2022-08-19T00:47:50;19.50;99.90
7240;DHT22;3661;53.288;10.458;2022-08-19T00:50:23;19.50;99.90
7240;DHT22;3661;53.288;10.458;2022-08-19T00:52:56;19.50;99.90
7240;DHT22;3661;53.288;10.458;2022-08-19T00:55:31;19.50;99.90
7240;DHT22;3661;53.288;10.458;2022-08-19T00:58:07;19.50;99.90
7240;DHT22;3661;53.288;10.458;2022-08-19T01:00:41;19.50;99.90
7240;DHT22;3661;53.288;10.458;2022-08-19T01:03:16;19.40;99.90
7240;DHT22;3661;53.288;10.458;2022-08-19T01:05:49;19.40;99.90
7240;DHT22;3661;53.288;10.458;2022-08-19T01:08:22;19.40;99.90
7240;DHT22;3661;53.288;10.458;2022-08-19T01:10:57;19.40;99.90
7240;DHT22;3661;53.288;10.458;2022-08-19T01:13:33;19.40;99.90
7240;DHT22;3661;53.288;10.458;2022-08-19T01:16:09;19.40;99.90
7240;DHT22;3661;53.288;10.458;2022-08-19T01:18:42;19.30;99.90
7240;DHT22;3661;53.288;10.458;2022-08-19T01:21:19;19.30;99.90
7240;DHT22;3661;53.288;10.458;2022-08-19T01:23:55;19.30;99.90
7240;DHT22;3661;53.288;10.458;2022-08-19T01:26:27;19.30;99.90
7240;DHT22;3661;53.288;10.458;2022-08-19T01:28:59;19.30;99.90
7240;DHT22;3661;53.288;10.458;2022-08-19T01:31:32;19.20;99.90
7240;DHT22;3661;53.288;10.458;2022-08-19T01:34:05;19.20;99.90
7240;DHT22;3661;53.288;10.458;2022-08-19T01:36:40;19.20;99.90
7240;DHT22;3661;53.288;10.458;2022-08-19T01:39:19;19.20;99.90
7240;DHT22;3661;53.288;10.458;2022-08-19T01:41:51;19.20;99.90
7240;DHT22;3661;53.288;10.458;2022-08-19T01:44:25;19.20;99.90
7240;DHT22;3661;53.288;10.458;2022-08-19T01:47:00;19.20;99.90
7240;DHT22;3661;53.288;10.458;2022-08-19T01:49:32;19.10;99.90
7240;DHT22;3661;53.288;10.458;2022-08-19T01:52:05;19.10;99.90
7240;DHT22;3661;53.288;10.458;2022-08-19T01:54:39;19.10;99.90
7240;DHT22;3661;53.288;10.458;2022-08-19T01:57:12;19.00;99.90
7240;DHT22;3661;53.288;10.458;2022-08-19T01:59:45;19.10;99.90
7240;DHT22;3661;53.288;10.458;2022-08-19T02:02:17;19.00;99.90
7240;DHT22;3661;53.288;10.458;2022-08-19T02:04:50;19.00;99.90
7240;DHT22;3661;53.288;10.458;2022-08-19T02:07:22;19.00;99.90
7240;DHT22;3661;53.288;10.458;2022-08-19T02:09:56;18.90;99.90
7240;DHT22;3661;53.288;10.458;2022-08-19T02:12:28;18.90;99.90
7240;DHT22;3661;53.288;10.458;2022-08-19T02:15:00;18.90;99.90
7240;DHT22;3661;53.288;10.458;2022-08-19T02:17:33;18.90;99.90
7240;DHT22;3661;53.288;10.458;2022-08-19T02:20:07;18.90;99.90
7240;DHT22;3661;53.288;10.458;2022-08-19T02:22:39;18.90;99.90
7240;DHT22;3661;53.288;10.458;2022-08-19T02:25:14;18.80;99.90
7240;DHT22;3661;53.288;10.458;2022-08-19T02:27:46;18.80;99.90
7240;DHT22;3661;53.288;10.458;2022-08-19T02:30:18;18.80;99.90
7240;DHT22;3661;53.288;10.458;2022-08-19T02:32:51;18.70;99.90
7240;DHT22;3661;53.288;10.458;2022-08-19T02:35:23;18.70;99.90
7240;DHT22;3661;53.288;10.458;2022-08-19T02:37:56;18.70;99.90
7240;DHT22;3661;53.288;10.458;2022-08-19T02:40:50;18.70;99.90
7240;DHT22;3661;53.288;10.458;2022-08-19T02:43:24;18.60;99.90
7240;DHT22;3661;53.288;10.458;2022-08-19T02:45:56;18.60;99.90
7240;DHT22;3661;53.288;10.458;2022-08-19T02:48:28;18.50;99.90
7240;DHT22;3661;53.288;10.458;2022-08-19T02:51:00;18.50;99.90
7240;DHT22;3661;53.288;10.458;2022-08-19T02:53:33;18.50;99.90
7240;DHT22;3661;53.288;10.458;2022-08-19T02:56:08;18.50;99.90
7240;DHT22;3661;53.288;10.458;2022-08-19T02:58:40;18.50;99.90
7240;DHT22;3661;53.288;10.458;2022-08-19T03:01:20;18.40;99.90
7240;DHT22;3661;53.288;10.458;2022-08-19T03:03:53;18.40;99.90
7240;DHT22;3661;53.288;10.458;2022-08-19T03:06:26;18.40;99.90
7240;DHT22;3661;53.288;10.458;2022-08-19T03:08:58;18.50;99.90
7240;DHT22;3661;53.288;10.458;2022-08-19T03:11:33;18.50;99.90
7240;DHT22;3661;53.288;10.458;2022-08-19T03:14:07;18.50;99.90
7240;DHT22;3661;53.288;10.458;2022-08-19T03:16:42;18.50;99.90
7240;DHT22;3661;53.288;10.458;2022-08-19T03:19:17;18.50;99.90
7240;DHT22;3661;53.288;10.458;2022-08-19T03:21:50;18.50;99.90
7240;DHT22;3661;53.288;10.458;2022-08-19T03:24:23;18.50;99.90
7240;DHT22;3661;53.288;10.458;2022-08-19T03:26:57;18.40;99.90
7240;DHT22;3661;53.288;10.458;2022-08-19T03:29:30;18.50;99.90
7240;DHT22;3661;53.288;10.458;2022-08-19T03:32:05;18.40;99.90
7240;DHT22;3661;53.288;10.458;2022-08-19T03:34:38;18.50;99.90
7240;DHT22;3661;53.288;10.458;2022-08-19T03:37:11;18.40;99.90
7240;DHT22;3661;53.288;10.458;2022-08-19T03:39:44;18.40;99.90
7240;DHT22;3661;53.288;10.458;2022-08-19T03:42:17;18.40;99.90
7240;DHT22;3661;53.288;10.458;2022-08-19T03:44:49;18.40;99.90
7240;DHT22;3661;53.288;10.458;2022-08-19T03:47:22;18.40;99.90
7240;DHT22;3661;53.288;10.458;2022-08-19T03:49:54;18.40;99.90
7240;DHT22;3661;53.288;10.458;2022-08-19T03:52:26;18.40;99.90
7240;DHT22;3661;53.288;10.458;2022-08-19T03:54:58;18.40;99.90
7240;DHT22;3661;53.288;10.458;2022-08-19T03:57:33;18.40;99.90
7240;DHT22;3661;53.288;10.458;2022-08-19T04:00:06;18.40;99.90
7240;DHT22;3661;53.288;10.458;2022-08-19T04:02:38;18.40;99.90
7240;DHT22;3661;53.288;10.458;2022-08-19T04:05:10;18.40;99.90
7240;DHT22;3661;53.288;10.458;2022-08-19T04:07:44;18.40;99.90
7240;DHT22;3661;53.288;10.458;2022-08-19T04:10:16;18.40;99.90
7240;DHT22;3661;53.288;10.458;2022-08-19T04:12:50;18.40;99.90
7240;DHT22;3661;53.288;10.458;2022-08-19T04:15:22;18.40;99.90
7240;DHT22;3661;53.288;10.458;2022-08-19T04:17:55;18.40;99.90
7240;DHT22;3661;53.288;10.458;2022-08-19T04:20:27;18.50;99.90
7240;DHT22;3661;53.288;10.458;2022-08-19T04:22:59;18.50;99.90
7240;DHT22;3661;53.288;10.458;2022-08-19T04:25:35;18.40;99.90
7240;DHT22;3661;53.288;10.458;2022-08-19T04:28:11;18.50;99.90
7240;DHT22;3661;53.288;10.458;2022-08-19T04:30:46;18.50;99.90
7240;DHT22;3661;53.288;10.458;2022-08-19T04:33:21;18.50;99.90
7240;DHT22;3661;53.288;10.458;2022-08-19T04:35:53;18.50;99.90
7240;DHT22;3661;53.288;10.458;2022-08-19T04:38:28;18.50;99.90
7240;DHT22;3661;53.288;10.458;2022-08-19T04:41:03;18.50;99.90
7240;DHT22;3661;53.288;10.458;2022-08-19T04:43:54;18.50;99.90
7240;DHT22;3661;53.288;10.458;2022-08-19T04:46:26;18.50;99.90
7240;DHT22;3661;53.288;10.458;2022-08-19T04:49:00;18.50;99.90
7240;DHT22;3661;53.288;10.458;2022-08-19T04:51:34;18.50;99.90
7240;DHT22;3661;53.288;10.458;2022-08-19T04:54:07;18.50;99.90
7240;DHT22;3661;53.288;10.458;2022-08-19T04:56:40;18.50;99.90
7240;DHT22;3661;53.288;10.458;2022-08-19T04:59:14;18.50;99.90
7240;DHT22;3661;53.288;10.458;2022-08-19T05:01:47;18.50;99.90
7240;DHT22;3661;53.288;10.458;2022-08-19T05:04:20;18.50;99.90
7240;DHT22;3661;53.288;10.458;2022-08-19T05:06:52;18.50;99.90
7240;DHT22;3661;53.288;10.458;2022-08-19T05:09:25;18.60;99.90
7240;DHT22;3661;53.288;10.458;2022-08-19T05:11:57;18.50;99.90
7240;DHT22;3661;53.288;10.458;2022-08-19T05:14:32;18.60;99.90
7240;DHT22;3661;53.288;10.458;2022-08-19T05:17:04;18.60;99.90
7240;DHT22;3661;53.288;10.458;2022-08-19T05:19:36;18.60;99.90
7240;DHT22;3661;53.288;10.458;2022-08-19T05:22:26;18.60;99.90
7240;DHT22;3661;53.288;10.458;2022-08-19T05:25:07;18.60;99.90
7240;DHT22;3661;53.288;10.458;2022-08-19T05:27:40;18.70;99.90
7240;DHT22;3661;53.288;10.458;2022-08-19T05:30:15;18.70;99.90
7240;DHT22;3661;53.288;10.458;2022-08-19T05:32:47;18.60;99.90
7240;DHT22;3661;53.288;10.458;2022-08-19T05:35:20;18.70;99.90
7240;DHT22;3661;53.288;10.458;2022-08-19T05:37:54;18.70;99.90
7240;DHT22;3661;53.288;10.458;2022-08-19T05:40:26;18.70;99.90
7240;DHT22;3661;53.288;10.458;2022-08-19T05:43:14;18.70;99.90
7240;DHT22;3661;53.288;10.458;2022-08-19T05:45:48;18.70;99.90
7240;DHT22;3661;53.288;10.458;2022-08-19T05:48:21;18.80;99.90
7240;DHT22;3661;53.288;10.458;2022-08-19T05:50:53;18.80;99.90
7240;DHT22;3661;53.288;10.458;2022-08-19T05:53:25;18.80;99.90
7240;DHT22;3661;53.288;10.458;2022-08-19T05:56:03;18.80;99.90
7240;DHT22;3661;53.288;10.458;2022-08-19T05:58:37;18.90;99.90
7240;DHT22;3661;53.288;10.458;2022-08-19T06:01:12;18.90;99.90
7240;DHT22;3661;53.288;10.458;2022-08-19T06:03:45;18.90;99.90
7240;DHT22;3661;53.288;10.458;2022-08-19T06:06:19;18.90;99.90
7240;DHT22;3661;53.288;10.458;2022-08-19T06:08:51;19.00;99.90
7240;DHT22;3661;53.288;10.458;2022-08-19T06:11:31;19.00;99.90
7240;DHT22;3661;53.288;10.458;2022-08-19T06:14:05;19.00;99.90
7240;DHT22;3661;53.288;10.458;2022-08-19T06:16:41;19.00;99.90
7240;DHT22;3661;53.288;10.458;2022-08-19T06:19:16;19.00;99.90
7240;DHT22;3661;53.288;10.458;2022-08-19T06:21:49;19.00;99.90
7240;DHT22;3661;53.288;10.458;2022-08-19T06:24:23;19.00;99.90
7240;DHT22;3661;53.288;10.458;2022-08-19T06:26:57;19.00;99.90
7240;DHT22;3661;53.288;10.458;2022-08-19T06:29:29;19.00;99.90
7240;DHT22;3661;53.288;10.458;2022-08-19T06:32:04;19.10;99.90
7240;DHT22;3661;53.288;10.458;2022-08-19T06:34:36;19.10;99.90
7240;DHT22;3661;53.288;10.458;2022-08-19T06:37:08;19.20;99.90
7240;DHT22;3661;53.288;10.458;2022-08-19T06:39:42;19.20;99.90
7240;DHT22;3661;53.288;10.458;2022-08-19T06:42:15;19.20;99.90
7240;DHT22;3661;53.288;10.458;2022-08-19T06:44:49;19.20;99.90
7240;DHT22;3661;53.288;10.458;2022-08-19T06:47:22;19.20;99.90
7240;DHT22;3661;53.288;10.458;2022-08-19T06:49:55;19.20;99.90
7240;DHT22;3661;53.288;10.458;2022-08-19T06:52:34;19.20;99.90
7240;DHT22;3661;53.288;10.458;2022-08-19T06:55:07;19.20;99.90
7240;DHT22;3661;53.288;10.458;2022-08-19T06:57:40;19.20;99.90
7240;DHT22;3661;53.288;10.458;2022-08-19T07:00:13;19.30;99.90
7240;DHT22;3661;53.288;10.458;2022-08-19T07:02:47;19.30;99.90
7240;DHT22;3661;53.288;10.458;2022-08-19T07:05:19;19.30;99.90
7240;DHT22;3661;53.288;10.458;2022-08-19T07:07:51;19.20;99.90
7240;DHT22;3661;53.288;10.458;2022-08-19T07:10:24;19.30;99.90
7240;DHT22;3661;53.288;10.458;2022-08-19T07:12:56;19.20;99.90
7240;DHT22;3661;53.288;10.458;2022-08-19T07:15:29;19.20;99.90
7240;DHT22;3661;53.288;10.458;2022-08-19T07:21:29;19.20;99.90
7240;DHT22;3661;53.288;10.458;2022-08-19T07:24:02;19.20;99.90
7240;DHT22;3661;53.288;10.458;2022-08-19T07:26:39;19.20;99.90
7240;DHT22;3661;53.288;10.458;2022-08-19T07:29:12;19.20;99.90
7240;DHT22;3661;53.288;10.458;2022-08-19T07:31:45;19.20;99.90
7240;DHT22;3661;53.288;10.458;2022-08-19T07:34:19;19.20;99.90
7240;DHT22;3661;53.288;10.458;2022-08-19T07:36:53;19.20;99.90
7240;DHT22;3661;53.288;10.458;2022-08-19T07:39:29;19.20;99.90
7240;DHT22;3661;53.288;10.458;2022-08-19T07:42:05;19.20;99.90
7240;DHT22;3661;53.288;10.458;2022-08-19T07:44:38;19.20;99.90
7240;DHT22;3661;53.288;10.458;2022-08-19T07:47:11;19.20;99.90
7240;DHT22;3661;53.288;10.458;2022-08-19T07:49:46;19.20;99.90
7240;DHT22;3661;53.288;10.458;2022-08-19T07:52:19;19.20;99.90
7240;DHT22;3661;53.288;10.458;2022-08-19T07:54:52;19.20;99.90
7240;DHT22;3661;53.288;10.458;2022-08-19T07:57:25;19.20;99.90
7240;DHT22;3661;53.288;10.458;2022-08-19T07:59:57;19.20;99.90
7240;DHT22;3661;53.288;10.458;2022-08-19T08:02:29;19.20;99.90
7240;DHT22;3661;53.288;10.458;2022-08-19T08:05:01;19.20;99.90
7240;DHT22;3661;53.288;10.458;2022-08-19T08:07:52;19.20;99.90
7240;DHT22;3661;53.288;10.458;2022-08-19T08:10:42;19.20;99.90
7240;DHT22;3661;53.288;10.458;2022-08-19T08:13:16;19.20;99.90
7240;DHT22;3661;53.288;10.458;2022-08-19T08:15:48;19.20;99.90
7240;DHT22;3661;53.288;10.458;2022-08-19T08:18:20;19.20;99.90
7240;DHT22;3661;53.288;10.458;2022-08-19T08:20:52;19.20;99.90
7240;DHT22;3661;53.288;10.458;2022-08-19T08:23:26;19.10;99.90
7240;DHT22;3661;53.288;10.458;2022-08-19T08:26:00;19.10;99.90
7240;DHT22;3661;53.288;10.458;2022-08-19T08:28:35;19.10;99.90
7240;DHT22;3661;53.288;10.458;2022-08-19T08:31:08;19.10;99.90
7240;DHT22;3661;53.288;10.458;2022-08-19T08:33:41;19.10;99.90
7240;DHT22;3661;53.288;10.458;2022-08-19T08:36:14;19.10;99.90
7240;DHT22;3661;53.288;10.458;2022-08-19T08:38:48;19.10;99.90
7240;DHT22;3661;53.288;10.458;2022-08-19T08:41:26;19.10;99.90
7240;DHT22;3661;53.288;10.458;2022-08-19T08:44:00;19.10;99.90
7240;DHT22;3661;53.288;10.458;2022-08-19T08:46:39;19.10;99.90
7240;DHT22;3661;53.288;10.458;2022-08-19T08:49:21;19.10;99.90
7240;DHT22;3661;53.288;10.458;2022-08-19T08:52:00;19.10;99.90
7240;DHT22;3661;53.288;10.458;2022-08-19T08:54:38;19.10;99.90
7240;DHT22;3661;53.288;10.458;2022-08-19T08:57:15;19.10;99.90
7240;DHT22;3661;53.288;10.458;2022-08-19T08:59:51;19.00;99.90
7240;DHT22;3661;53.288;10.458;2022-08-19T09:02:25;19.10;99.90
7240;DHT22;3661;53.288;10.458;2022-08-19T09:04:58;19.00;99.90
7240;DHT22;3661;53.288;10.458;2022-08-19T09:07:40;19.00;99.90
7240;DHT22;3661;53.288;10.458;2022-08-19T09:10:24;19.00;99.90
7240;DHT22;3661;53.288;10.458;2022-08-19T09:13:05;19.00;99.90
7240;DHT22;3661;53.288;10.458;2022-08-19T09:15:44;19.00;99.90
7240;DHT22;3661;53.288;10.458;2022-08-19T09:18:18;19.00;99.90
7240;DHT22;3661;53.288;10.458;2022-08-19T09:20:50;19.00;99.90
7240;DHT22;3661;53.288;10.458;2022-08-19T09:23:23;19.00;99.90
7240;DHT22;3661;53.288;10.458;2022-08-19T09:25:56;19.00;99.90
7240;DHT22;3661;53.288;10.458;2022-08-19T09:28:28;19.00;99.90
7240;DHT22;3661;53.288;10.458;2022-08-19T09:31:02;19.00;99.90
7240;DHT22;3661;53.288;10.458;2022-08-19T09:33:34;19.00;99.90
7240;DHT22;3661;53.288;10.458;2022-08-19T09:36:08;19.00;99.90
7240;DHT22;3661;53.288;10.458;2022-08-19T09:38:41;19.00;99.90
7240;DHT22;3661;53.288;10.458;2022-08-19T09:41:17;19.00;99.90
7240;DHT22;3661;53.288;10.458;2022-08-19T09:43:52;19.00;99.90
7240;DHT22;3661;53.288;10.458;2022-08-19T09:46:28;19.00;99.90
7240;DHT22;3661;53.288;10.458;2022-08-19T09:49:01;19.00;99.90
7240;DHT22;3661;53.288;10.458;2022-08-19T09:51:36;19.00;99.90
7240;DHT22;3661;53.288;10.458;2022-08-19T09:54:08;19.00;99.90
7240;DHT22;3661;53.288;10.458;2022-08-19T09:56:42;19.00;99.90
7240;DHT22;3661;53.288;10.458;2022-08-19T09:59:15;19.00;99.90
7240;DHT22;3661;53.288;10.458;2022-08-19T10:01:48;19.00;99.90
7240;DHT22;3661;53.288;10.458;2022-08-19T10:04:20;19.00;99.90
7240;DHT22;3661;53.288;10.458;2022-08-19T10:06:56;19.00;99.90
7240;DHT22;3661;53.288;10.458;2022-08-19T10:09:28;19.00;99.90
7240;DHT22;3661;53.288;10.458;2022-08-19T10:12:03;19.00;99.90
7240;DHT22;3661;53.288;10.458;2022-08-19T10:14:36;19.00;99.90
7240;DHT22;3661;53.288;10.458;2022-08-19T10:17:08;19.00;99.90
7240;DHT22;3661;53.288;10.458;2022-08-19T10:19:40;19.00;99.90
7240;DHT22;3661;53.288;10.458;2022-08-19T10:22:13;19.10;99.90
7240;DHT22;3661;53.288;10.458;2022-08-19T10:24:45;19.10;99.90
7240;DHT22;3661;53.288;10.458;2022-08-19T10:27:19;19.10;99.90
7240;DHT22;3661;53.288;10.458;2022-08-19T10:29:52;19.10;99.90
7240;DHT22;3661;53.288;10.458;2022-08-19T10:32:24;19.10;99.90
7240;DHT22;3661;53.288;10.458;2022-08-19T10:34:56;19.10;99.90
7240;DHT22;3661;53.288;10.458;2022-08-19T10:37:28;19.20;99.90
7240;DHT22;3661;53.288;10.458;2022-08-19T10:40:02;19.20;99.90
7240;DHT22;3661;53.288;10.458;2022-08-19T10:42:35;19.20;99.90
7240;DHT22;3661;53.288;10.458;2022-08-19T10:45:08;19.20;99.90
7240;DHT22;3661;53.288;10.458;2022-08-19T10:47:41;19.20;99.90
7240;DHT22;3661;53.288;10.458;2022-08-19T10:50:13;19.30;99.90
7240;DHT22;3661;53.288;10.458;2022-08-19T10:53:05;19.30;99.90
7240;DHT22;3661;53.288;10.458;2022-08-19T10:55:38;19.30;99.90
7240;DHT22;3661;53.288;10.458;2022-08-19T10:58:29;19.40;99.90
7240;DHT22;3661;53.288;10.458;2022-08-19T11:01:01;19.40;99.90
7240;DHT22;3661;53.288;10.458;2022-08-19T11:03:33;19.40;99.90
7240;DHT22;3661;53.288;10.458;2022-08-19T11:06:07;19.40;99.90
7240;DHT22;3661;53.288;10.458;2022-08-19T11:08:40;19.50;99.90
7240;DHT22;3661;53.288;10.458;2022-08-19T11:11:15;19.50;99.90
7240;DHT22;3661;53.288;10.458;2022-08-19T11:13:49;19.60;99.90
7240;DHT22;3661;53.288;10.458;2022-08-19T11:16:23;19.60;99.90
7240;DHT22;3661;53.288;10.458;2022-08-19T11:18:58;19.60;99.90
7240;DHT22;3661;53.288;10.458;2022-08-19T11:21:33;19.70;99.90
7240;DHT22;3661;53.288;10.458;2022-08-19T11:24:07;19.70;99.90
7240;DHT22;3661;53.288;10.458;2022-08-19T11:26:43;19.70;99.90
7240;DHT22;3661;53.288;10.458;2022-08-19T11:29:18;19.70;99.90
7240;DHT22;3661;53.288;10.458;2022-08-19T11:31:51;19.80;99.90
7240;DHT22;3661;53.288;10.458;2022-08-19T11:34:25;19.80;99.90
7240;DHT22;3661;53.288;10.458;2022-08-19T11:36:59;19.90;99.90
7240;DHT22;3661;53.288;10.458;2022-08-19T11:39:33;19.90;99.90
7240;DHT22;3661;53.288;10.458;2022-08-19T11:42:07;19.90;99.90
7240;DHT22;3661;53.288;10.458;2022-08-19T11:44:55;19.90;99.90
7240;DHT22;3661;53.288;10.458;2022-08-19T11:47:27;19.90;99.90
7240;DHT22;3661;53.288;10.458;2022-08-19T11:49:59;20.00;99.90
7240;DHT22;3661;53.288;10.458;2022-08-19T11:52:31;20.00;99.90
7240;DHT22;3661;53.288;10.458;2022-08-19T11:55:05;20.10;99.90
7240;DHT22;3661;53.288;10.458;2022-08-19T11:57:37;20.10;99.90
7240;DHT22;3661;53.288;10.458;2022-08-19T12:00:14;20.20;99.90
7240;DHT22;3661;53.288;10.458;2022-08-19T12:02:46;20.20;99.90
7240;DHT22;3661;53.288;10.458;2022-08-19T12:05:19;20.30;99.90
7240;DHT22;3661;53.288;10.458;2022-08-19T12:07:51;20.40;99.90
7240;DHT22;3661;53.288;10.458;2022-08-19T12:10:24;20.40;99.90
7240;DHT22;3661;53.288;10.458;2022-08-19T12:12:57;20.50;99.90
7240;DHT22;3661;53.288;10.458;2022-08-19T12:15:35;20.60;99.90
7240;DHT22;3661;53.288;10.458;2022-08-19T12:18:08;20.70;99.90
7240;DHT22;3661;53.288;10.458;2022-08-19T12:20:42;20.90;99.90
7240;DHT22;3661;53.288;10.458;2022-08-19T12:23:16;21.00;99.90
7240;DHT22;3661;53.288;10.458;2022-08-19T12:25:49;21.00;99.90
7240;DHT22;3661;53.288;10.458;2022-08-19T12:28:23;21.20;99.90
7240;DHT22;3661;53.288;10.458;2022-08-19T12:30:57;21.30;99.90
7240;DHT22;3661;53.288;10.458;2022-08-19T12:33:30;21.40;99.90
7240;DHT22;3661;53.288;10.458;2022-08-19T12:36:04;21.40;99.90
7240;DHT22;3661;53.288;10.458;2022-08-19T12:38:38;21.50;99.90
7240;DHT22;3661;53.288;10.458;2022-08-19T12:41:13;21.60;99.90
7240;DHT22;3661;53.288;10.458;2022-08-19T12:43:45;21.50;99.90
7240;DHT22;3661;53.288;10.458;2022-08-19T12:46:20;21.60;99.90
7240;DHT22;3661;53.288;10.458;2022-08-19T12:48:52;21.70;99.90
7240;DHT22;3661;53.288;10.458;2022-08-19T12:51:25;21.60;99.90
7240;DHT22;3661;53.288;10.458;2022-08-19T12:53:57;21.70;99.90
7240;DHT22;3661;53.288;10.458;2022-08-19T12:56:29;21.80;99.90
7240;DHT22;3661;53.288;10.458;2022-08-19T12:59:03;21.80;99.90
7240;DHT22;3661;53.288;10.458;2022-08-19T13:01:37;21.90;99.90
7240;DHT22;3661;53.288;10.458;2022-08-19T13:04:10;22.00;99.90
7240;DHT22;3661;53.288;10.458;2022-08-19T13:06:42;22.00;99.90
7240;DHT22;3661;53.288;10.458;2022-08-19T13:09:14;22.00;99.90
7240;DHT22;3661;53.288;10.458;2022-08-19T13:11:47;22.00;99.90
7240;DHT22;3661;53.288;10.458;2022-08-19T13:14:19;22.00;99.90
7240;DHT22;3661;53.288;10.458;2022-08-19T13:16:52;22.00;99.90
7240;DHT22;3661;53.288;10.458;2022-08-19T13:19:26;22.00;99.90
7240;DHT22;3661;53.288;10.458;2022-08-19T13:21:59;22.00;99.90
7240;DHT22;3661;53.288;10.458;2022-08-19T13:24:31;22.10;99.90
7240;DHT22;3661;53.288;10.458;2022-08-19T13:27:04;22.10;99.90
7240;DHT22;3661;53.288;10.458;2022-08-19T13:29:39;22.10;99.90
7240;DHT22;3661;53.288;10.458;2022-08-19T13:32:30;22.20;99.90
7240;DHT22;3661;53.288;10.458;2022-08-19T13:35:20;22.20;99.90
7240;DHT22;3661;53.288;10.458;2022-08-19T13:37:52;22.20;99.90
7240;DHT22;3661;53.288;10.458;2022-08-19T13:40:25;22.30;99.90
7240;DHT22;3661;53.288;10.458;2022-08-19T13:43:00;22.30;99.90
7240;DHT22;3661;53.288;10.458;2022-08-19T13:45:33;22.30;99.90
7240;DHT22;3661;53.288;10.458;2022-08-19T13:48:08;22.40;99.90
7240;DHT22;3661;53.288;10.458;2022-08-19T13:50:42;22.40;99.90
7240;DHT22;3661;53.288;10.458;2022-08-19T13:53:15;22.40;99.90
7240;DHT22;3661;53.288;10.458;2022-08-19T13:55:47;22.50;99.90
7240;DHT22;3661;53.288;10.458;2022-08-19T13:58:21;22.50;99.90
7240;DHT22;3661;53.288;10.458;2022-08-19T14:00:53;22.60;99.90
7240;DHT22;3661;53.288;10.458;2022-08-19T14:03:27;22.70;99.90
7240;DHT22;3661;53.288;10.458;2022-08-19T14:06:00;22.70;99.90
7240;DHT22;3661;53.288;10.458;2022-08-19T14:08:32;22.80;99.90
7240;DHT22;3661;53.288;10.458;2022-08-19T14:11:04;22.80;99.90
7240;DHT22;3661;53.288;10.458;2022-08-19T14:13:37;22.90;99.90
7240;DHT22;3661;53.288;10.458;2022-08-19T14:16:10;22.90;99.90
7240;DHT22;3661;53.288;10.458;2022-08-19T14:18:44;23.00;99.90
7240;DHT22;3661;53.288;10.458;2022-08-19T14:21:19;23.00;99.90
7240;DHT22;3661;53.288;10.458;2022-08-19T14:23:54;23.10;99.90
7240;DHT22;3661;53.288;10.458;2022-08-19T14:26:26;23.20;99.90
7240;DHT22;3661;53.288;10.458;2022-08-19T14:28:58;23.30;99.90
7240;DHT22;3661;53.288;10.458;2022-08-19T14:31:32;23.30;99.90
7240;DHT22;3661;53.288;10.458;2022-08-19T14:34:05;23.30;99.90
7240;DHT22;3661;53.288;10.458;2022-08-19T14:36:38;23.40;99.90
7240;DHT22;3661;53.288;10.458;2022-08-19T14:39:10;23.40;99.90
7240;DHT22;3661;53.288;10.458;2022-08-19T14:41:42;23.40;99.90
7240;DHT22;3661;53.288;10.458;2022-08-19T14:44:15;23.50;99.90
7240;DHT22;3661;53.288;10.458;2022-08-19T14:46:47;23.50;99.90
7240;DHT22;3661;53.288;10.458;2022-08-19T14:49:21;23.50;99.90
7240;DHT22;3661;53.288;10.458;2022-08-19T14:51:53;23.50;99.90
7240;DHT22;3661;53.288;10.458;2022-08-19T14:54:27;23.50;99.90
7240;DHT22;3661;53.288;10.458;2022-08-19T14:56:59;23.60;99.90
7240;DHT22;3661;53.288;10.458;2022-08-19T14:59:31;23.60;99.90
7240;DHT22;3661;53.288;10.458;2022-08-19T15:02:04;23.60;99.90
7240;DHT22;3661;53.288;10.458;2022-08-19T15:04:37;23.70;99.90
7240;DHT22;3661;53.288;10.458;2022-08-19T15:07:10;23.90;99.90
7240;DHT22;3661;53.288;10.458;2022-08-19T15:09:42;24.00;99.90
7240;DHT22;3661;53.288;10.458;2022-08-19T15:12:14;24.20;99.90
7240;DHT22;3661;53.288;10.458;2022-08-19T15:14:47;24.30;99.90
7240;DHT22;3661;53.288;10.458;2022-08-19T15:17:21;24.50;99.90
7240;DHT22;3661;53.288;10.458;2022-08-19T15:19:54;24.70;99.90
7240;DHT22;3661;53.288;10.458;2022-08-19T15:22:26;24.90;99.90
7240;DHT22;3661;53.288;10.458;2022-08-19T15:24:58;25.10;99.90
7240;DHT22;3661;53.288;10.458;2022-08-19T15:27:31;25.20;99.90
7240;DHT22;3661;53.288;10.458;2022-08-19T15:30:05;25.30;99.90
7240;DHT22;3661;53.288;10.458;2022-08-19T15:32:38;25.40;99.90
7240;DHT22;3661;53.288;10.458;2022-08-19T15:35:12;25.50;99.90
7240;DHT22;3661;53.288;10.458;2022-08-19T15:37:47;25.50;99.90
7240;DHT22;3661;53.288;10.458;2022-08-19T15:40:20;25.50;99.90
7240;DHT22;3661;53.288;10.458;2022-08-19T15:42:53;25.50;99.90
7240;DHT22;3661;53.288;10.458;2022-08-19T15:45:26;25.60;99.90
7240;DHT22;3661;53.288;10.458;2022-08-19T15:48:03;25.70;99.90
7240;DHT22;3661;53.288;10.458;2022-08-19T15:50:37;25.70;99.90
7240;DHT22;3661;53.288;10.458;2022-08-19T15:53:10;25.80;99.90
7240;DHT22;3661;53.288;10.458;2022-08-19T15:55:44;25.90;99.90
7240;DHT22;3661;53.288;10.458;2022-08-19T15:58:17;25.90;99.90
7240;DHT22;3661;53.288;10.458;2022-08-19T16:01:07;26.00;99.90
7240;DHT22;3661;53.288;10.458;2022-08-19T16:03:58;26.10;99.90
7240;DHT22;3661;53.288;10.458;2022-08-19T16:06:52;26.10;99.90
7240;DHT22;3661;53.288;10.458;2022-08-19T16:09:26;26.10;99.90
7240;DHT22;3661;53.288;10.458;2022-08-19T16:12:00;26.10;99.90
7240;DHT22;3661;53.288;10.458;2022-08-19T16:14:34;26.10;99.90
7240;DHT22;3661;53.288;10.458;2022-08-19T16:17:07;26.10;99.90
7240;DHT22;3661;53.288;10.458;2022-08-19T16:19:42;26.20;99.90
7240;DHT22;3661;53.288;10.458;2022-08-19T16:22:17;26.10;99.90
7240;DHT22;3661;53.288;10.458;2022-08-19T16:24:50;26.10;99.90
7240;DHT22;3661;53.288;10.458;2022-08-19T16:27:22;26.00;99.90
7240;DHT22;3661;53.288;10.458;2022-08-19T16:29:55;26.00;99.90
7240;DHT22;3661;53.288;10.458;2022-08-19T16:32:27;26.00;99.90